Time;durP1;ratioP1;P1;durP2;ratioP2;P2;SDS_P1;SDS_P2;PMS_P1;PMS_P2;Temp;Humidity;BMP_temperature;BMP_pressure;BME280_temperature;BME280_humidity;BME280_pressure;Samples;Min_cycle;Max_cycle;Signal;HPM_P1;HPM_P2
2022/07/14 00:00:18;;;;;;;0.40;0.40;;;;;;;24.35;nan;95562.06;5017878;28;20197;-65
2022/07/14 00:02:45;;;;;;;0.20;0.20;;;;;;;24.12;nan;95562.69;5038554;28;20290;-66
2022/07/14 00:05:12;;;;;;;0.90;0.63;;;;;;;24.31;nan;95561.16;5045736;28;20188;-65
2022/07/14 00:07:39;;;;;;;0.50;0.50;;;;;;;24.29;nan;95562.59;5038280;28;20745;-66
2022/07/14 00:10:06;;;;;;;0.53;0.53;;;;;;;24.18;nan;95567.53;5017572;28;20204;-66
2022/07/14 00:12:33;;;;;;;0.10;0.10;;;;;;;23.99;nan;95561.81;5015216;28;20197;-67
2022/07/14 00:15:00;;;;;;;0.40;0.40;;;;;;;23.94;nan;95562.00;5049132;28;20259;-68
2022/07/14 00:17:27;;;;;;;0.50;0.50;;;;;;;23.94;nan;95562.00;5036364;28;20231;-67
2022/07/14 00:19:54;;;;;;;0.97;0.77;;;;;;;24.08;nan;95567.91;5029158;28;20328;-67
2022/07/14 00:22:21;;;;;;;0.10;0.10;;;;;;;23.86;nan;95565.50;5040196;28;20241;-64
2022/07/14 00:24:52;;;;;;;0.33;0.33;;;;;;;23.91;nan;95566.09;5034914;28;20189;-65
2022/07/14 00:27:19;;;;;;;0.47;0.47;;;;;;;23.89;nan;95565.63;5029003;28;20225;-69
2022/07/14 00:29:46;;;;;;;0.77;0.77;;;;;;;23.75;nan;95574.97;5041464;28;20232;-68
2022/07/14 00:32:13;;;;;;;0.63;0.63;;;;;;;23.70;nan;95572.50;5044145;28;20197;-70
2022/07/14 00:34:41;;;;;;;0.40;0.40;;;;;;;23.72;nan;95548.88;5046979;28;20192;-68
2022/07/14 00:37:09;;;;;;;0.40;0.40;;;;;;;23.77;nan;95568.22;5039881;28;20189;-67
2022/07/14 00:39:54;;;;;;;0.17;0.17;;;;;;;23.43;nan;95567.56;5052888;28;20505;-70
2022/07/14 00:42:33;;;;;;;1.10;0.50;;;;;;;23.64;nan;95563.06;5032491;28;20251;-67
2022/07/14 00:45:05;;;;;;;0.83;0.83;;;;;;;23.75;nan;95561.59;5017337;28;20794;-63
2022/07/14 00:47:33;;;;;;;0.13;0.13;;;;;;;23.86;nan;95560.94;5031762;28;20209;-67
2022/07/14 00:50:01;;;;;;;0.40;0.40;;;;;;;23.58;nan;95575.84;5031296;28;20604;-63
2022/07/14 00:52:32;;;;;;;0.50;0.50;;;;;;;23.50;nan;95571.28;5031261;28;20201;-70
2022/07/14 00:54:59;;;;;;;0.40;0.40;;;;;;;23.51;nan;95569.41;5019282;28;20436;-70
2022/07/14 00:57:26;;;;;;;0.30;0.30;;;;;;;23.61;nan;95574.41;5030343;28;20321;-70
2022/07/14 00:59:55;;;;;;;0.20;0.20;;;;;;;23.62;nan;95573.31;5021923;28;20692;-64
2022/07/14 01:02:23;;;;;;;0.30;0.30;;;;;;;23.57;nan;95568.13;5031078;28;20189;-71
2022/07/14 01:04:50;;;;;;;0.30;0.30;;;;;;;23.51;nan;95564.06;5031181;28;20451;-66
2022/07/14 01:07:18;;;;;;;3.00;1.40;;;;;;;23.44;nan;95545.03;5018443;28;20185;-67
2022/07/14 01:09:45;;;;;;;0.30;0.30;;;;;;;23.56;nan;95566.53;5018401;28;20473;-73
2022/07/14 01:12:13;;;;;;;1.33;0.60;;;;;;;23.44;nan;95561.09;5020865;28;20447;-68
2022/07/14 01:14:41;;;;;;;0.30;0.30;;;;;;;23.36;nan;95562.69;5029839;28;20531;-73
2022/07/14 01:17:09;;;;;;;0.23;0.23;;;;;;;23.60;nan;95556.78;5042005;28;20484;-63
2022/07/14 01:19:36;;;;;;;0.10;0.10;;;;;;;23.55;nan;95559.63;5035930;28;20823;-65
2022/07/14 01:22:05;;;;;;;0.83;0.67;;;;;;;23.53;nan;95561.84;5022429;28;20433;-67
2022/07/14 01:24:33;;;;;;;0.20;0.20;;;;;;;23.08;nan;95550.78;5038917;28;20660;-69
2022/07/14 01:27:00;;;;;;;0.63;0.63;;;;;;;23.28;nan;95557.34;5017980;28;20483;-68
2022/07/14 01:29:28;;;;;;;0.37;0.37;;;;;;;23.35;nan;95557.66;5045472;28;20449;-69
2022/07/14 01:31:55;;;;;;;0.20;0.20;;;;;;;23.05;nan;95557.53;5050820;28;20953;-66
2022/07/14 01:34:22;;;;;;;0.40;0.40;;;;;;;23.23;nan;95554.84;5039759;28;20835;-68
2022/07/14 01:36:49;;;;;;;0.53;0.53;;;;;;;22.85;nan;95552.06;5048197;28;20439;-68
2022/07/14 01:39:16;;;;;;;0.27;0.27;;;;;;;22.69;nan;95559.78;5050604;28;20471;-66
2022/07/14 01:41:45;;;;;;;0.47;0.47;;;;;;;22.86;nan;95559.00;5034557;28;20201;-67
2022/07/14 01:44:12;;;;;;;0.57;0.57;;;;;;;22.78;nan;95557.91;5030979;28;20489;-76
2022/07/14 01:46:39;;;;;;;0.10;0.10;;;;;;;22.72;nan;95543.13;5031356;28;20961;-67
2022/07/14 01:49:06;;;;;;;0.40;0.40;;;;;;;22.73;nan;95550.06;5030168;28;20829;-68
2022/07/14 01:51:34;;;;;;;0.10;0.10;;;;;;;22.74;nan;95545.47;5016756;28;20460;-68
2022/07/14 01:54:04;;;;;;;0.13;0.13;;;;;;;22.78;nan;95555.22;5043842;28;20452;-67
2022/07/14 01:56:39;;;;;;;0.53;0.53;;;;;;;22.57;nan;95540.94;5014784;28;20990;-70
2022/07/14 01:59:08;;;;;;;0.20;0.20;;;;;;;22.60;nan;95545.66;5010063;28;20534;-66
2022/07/14 02:01:42;;;;;;;0.27;0.27;;;;;;;22.40;nan;95540.91;5027473;28;20460;-66
2022/07/14 02:04:13;;;;;;;0.10;0.10;;;;;;;22.40;nan;95546.25;5039405;28;20847;-70
2022/07/14 02:06:49;;;;;;;0.40;0.40;;;;;;;22.51;nan;95547.50;5036900;28;20456;-69
2022/07/14 02:12:46;;;;;;;0.23;0.23;;;;;;;22.42;nan;95548.59;5013489;28;20494;-70
2022/07/14 02:15:14;;;;;;;1.70;0.60;;;;;;;22.42;nan;95554.75;5026553;28;20481;-68
2022/07/14 02:17:41;;;;;;;0.30;0.30;;;;;;;22.43;nan;95550.97;5048072;28;20478;-70
2022/07/14 02:20:09;;;;;;;0.10;0.10;;;;;;;22.52;nan;95558.97;5037768;28;20439;-70
2022/07/14 02:22:36;;;;;;;0.30;0.30;;;;;;;22.18;nan;95554.41;5024826;28;20448;-66
2022/07/14 02:25:03;;;;;;;13.67;1.60;;;;;;;22.39;nan;95555.34;5023722;28;20979;-66
2022/07/14 02:27:31;;;;;;;0.10;0.10;;;;;;;22.57;nan;95556.94;5009262;28;20471;-65
2022/07/14 02:29:59;;;;;;;0.20;0.20;;;;;;;22.20;nan;95557.53;5014663;28;20436;-69
2022/07/14 02:32:29;;;;;;;5.70;1.20;;;;;;;22.24;nan;95558.50;5040919;28;20530;-62
2022/07/14 02:34:56;;;;;;;0.10;0.10;;;;;;;22.00;nan;95550.91;5016394;28;20441;-69
2022/07/14 02:37:23;;;;;;;0.60;0.53;;;;;;;21.86;nan;95568.16;5019279;28;20481;-69
2022/07/14 02:39:50;;;;;;;0.30;0.30;;;;;;;22.30;nan;95561.81;5043648;28;20538;-70
2022/07/14 02:42:18;;;;;;;0.63;0.63;;;;;;;22.34;nan;95568.84;5036742;28;20544;-67
2022/07/14 02:44:45;;;;;;;2.87;1.10;;;;;;;21.78;nan;95566.19;5037264;28;20463;-68
2022/07/14 02:47:12;;;;;;;2.13;0.97;;;;;;;22.15;nan;95565.72;5044496;28;20436;-64
2022/07/14 02:49:39;;;;;;;0.13;0.13;;;;;;;22.28;nan;95569.34;5040995;28;20995;-67
2022/07/14 02:52:06;;;;;;;0.30;0.30;;;;;;;22.18;nan;95559.72;5046111;28;20440;-68
2022/07/14 02:54:33;;;;;;;0.20;0.20;;;;;;;22.05;nan;95574.00;5028752;28;20845;-67
2022/07/14 02:57:00;;;;;;;0.20;0.20;;;;;;;21.96;nan;95567.84;5015875;28;20961;-68
2022/07/14 02:59:28;;;;;;;0.67;0.67;;;;;;;22.01;nan;95570.38;5034439;28;20475;-64
2022/07/14 03:01:54;;;;;;;0.73;0.50;;;;;;;21.76;nan;95568.38;5029943;28;20466;-64
2022/07/14 03:04:22;;;;;;;0.20;0.20;;;;;;;22.22;nan;95575.91;5029490;28;20441;-68
2022/07/14 03:06:52;;;;;;;0.20;0.20;;;;;;;22.13;nan;95575.91;5025167;28;20444;-68
2022/07/14 03:09:23;;;;;;;0.40;0.40;;;;;;;22.22;nan;95582.03;5012931;28;20556;-64
2022/07/14 03:11:50;;;;;;;0.37;0.37;;;;;;;22.10;nan;95584.50;5026925;28;20585;-71
2022/07/14 03:14:17;;;;;;;0.17;0.13;;;;;;;21.87;nan;95580.38;5047839;28;20451;-66
2022/07/14 03:16:45;;;;;;;0.20;0.20;;;;;;;22.43;nan;95580.34;5035445;28;20954;-66
2022/07/14 03:19:13;;;;;;;1.00;0.50;;;;;;;22.28;nan;95586.13;5035420;28;20479;-70
2022/07/14 03:21:42;;;;;;;0.20;0.20;;;;;;;22.17;nan;95585.63;5022724;28;20456;-65
2022/07/14 03:24:11;;;;;;;0.83;0.83;;;;;;;22.38;nan;95585.84;5020530;28;20856;-63
2022/07/14 03:26:39;;;;;;;0.33;0.33;;;;;;;22.37;nan;95592.25;5040926;28;20847;-71
2022/07/14 03:29:07;;;;;;;0.10;0.10;;;;;;;22.48;nan;95598.09;5028426;28;20427;-68
2022/07/14 03:31:34;;;;;;;0.40;0.40;;;;;;;22.48;nan;95590.84;5043218;28;20974;-70
2022/07/14 03:34:05;;;;;;;0.20;0.20;;;;;;;22.10;nan;95601.31;5037357;28;20435;-67
2022/07/14 03:36:35;;;;;;;0.13;0.13;;;;;;;21.91;nan;95605.34;5031394;28;20440;-67
2022/07/14 03:39:07;;;;;;;0.20;0.20;;;;;;;21.66;nan;95606.78;5037159;28;20486;-66
2022/07/14 03:41:35;;;;;;;0.20;0.20;;;;;;;22.14;nan;95607.63;5047952;28;20987;-66
2022/07/14 03:44:02;;;;;;;0.23;0.23;;;;;;;22.06;nan;95602.28;5035676;28;20449;-65
2022/07/14 03:46:29;;;;;;;0.10;0.10;;;;;;;21.74;nan;95608.72;5048019;28;20657;-66
2022/07/14 03:49:04;;;;;;;2.43;0.57;;;;;;;21.61;nan;95611.47;5041324;28;20518;-67
2022/07/14 03:51:31;;;;;;;0.63;0.63;;;;;;;21.67;nan;95596.91;5028290;28;20447;-64
2022/07/14 03:53:58;;;;;;;0.30;0.30;;;;;;;21.54;nan;95609.25;5037900;28;20441;-71
2022/07/14 03:56:27;;;;;;;0.80;0.80;;;;;;;21.60;nan;95617.91;5008764;28;20528;-67
2022/07/14 03:58:54;;;;;;;0.20;0.20;;;;;;;21.51;nan;95611.75;5021185;28;20480;-67
2022/07/14 04:01:22;;;;;;;0.50;0.50;;;;;;;21.75;nan;95614.84;5025357;28;21119;-64
2022/07/14 04:03:51;;;;;;;1.30;1.20;;;;;;;22.02;nan;95604.75;5013652;28;20509;-68
2022/07/14 04:06:18;;;;;;;2.37;1.20;;;;;;;21.97;nan;95601.44;5036804;28;20450;-67
2022/07/14 04:08:46;;;;;;;0.20;0.20;;;;;;;22.22;nan;95615.97;5026600;28;20955;-65
2022/07/14 04:11:14;;;;;;;0.63;0.63;;;;;;;21.87;nan;95623.06;5017975;28;21084;-68
2022/07/14 04:13:42;;;;;;;0.70;0.70;;;;;;;21.73;nan;95617.03;5011933;28;20460;-67
2022/07/14 04:16:09;;;;;;;0.10;0.10;;;;;;;21.95;nan;95609.75;5022061;28;20448;-65
2022/07/14 04:18:41;;;;;;;0.50;0.50;;;;;;;21.67;nan;95612.91;5020517;28;20521;-70
2022/07/14 04:21:10;;;;;;;0.43;0.43;;;;;;;21.37;nan;95624.38;5052069;28;20953;-67
2022/07/14 04:23:39;;;;;;;0.47;0.47;;;;;;;21.86;nan;95616.19;5034037;28;20448;-67
2022/07/14 04:26:06;;;;;;;0.87;0.87;;;;;;;21.61;nan;95627.47;5012209;28;20476;-64
2022/07/14 04:28:35;;;;;;;0.67;0.67;;;;;;;21.97;nan;95622.78;5026596;28;20451;-68
2022/07/14 04:31:03;;;;;;;0.37;0.37;;;;;;;21.93;nan;95627.19;5052017;28;20439;-64
2022/07/14 04:33:31;;;;;;;0.60;0.60;;;;;;;22.01;nan;95639.75;5038392;28;20439;-65
2022/07/14 04:35:59;;;;;;;0.57;0.57;;;;;;;21.78;nan;95611.56;5050717;28;20899;-67
2022/07/14 04:38:26;;;;;;;0.23;0.23;;;;;;;22.03;nan;95621.56;5051360;28;20571;-69
2022/07/14 04:40:55;;;;;;;1.90;1.27;;;;;;;21.71;nan;95624.56;5029469;28;20436;-76
2022/07/14 04:43:25;;;;;;;0.50;0.50;;;;;;;21.68;nan;95622.47;5011657;28;20436;-69
2022/07/14 04:45:56;;;;;;;8.33;3.50;;;;;;;22.16;nan;95636.66;5018238;28;20529;-66
2022/07/14 04:48:24;;;;;;;2.87;1.80;;;;;;;22.01;nan;95635.22;5042118;28;20448;-69
2022/07/14 04:53:48;;;;;;;0.93;0.83;;;;;;;21.88;nan;95635.31;5059585;28;20446;-63
2022/07/14 04:56:30;;;;;;;0.10;0.10;;;;;;;22.27;nan;95640.63;5017244;28;20941;-67
2022/07/14 04:59:15;;;;;;;0.40;0.40;;;;;;;22.65;nan;95638.19;5031370;28;20487;-64
2022/07/14 05:01:42;;;;;;;0.27;0.27;;;;;;;22.40;nan;95634.38;5043305;28;20458;-68
2022/07/14 05:04:09;;;;;;;0.67;0.67;;;;;;;22.20;nan;95636.84;5027293;28;20457;-65
2022/07/14 05:06:36;;;;;;;0.47;0.47;;;;;;;22.21;nan;95639.19;5051761;28;20533;-66
2022/07/14 05:09:03;;;;;;;0.60;0.60;;;;;;;22.70;nan;95635.41;5011318;28;20603;-71
2022/07/14 05:11:33;;;;;;;5.53;1.23;;;;;;;22.76;nan;95624.22;5017379;28;20444;-67
2022/07/14 05:14:00;;;;;;;6.47;4.47;;;;;;;23.07;nan;95646.25;5042973;28;21068;-71
2022/07/14 05:16:28;;;;;;;8.73;6.07;;;;;;;23.18;nan;95644.03;5045590;28;20966;-67
2022/07/14 05:18:56;;;;;;;2.77;1.77;;;;;;;22.84;nan;95642.16;5029518;28;21085;-66
2022/07/14 05:21:24;;;;;;;0.80;0.77;;;;;;;22.80;nan;95635.88;5016267;28;20436;-67
2022/07/14 05:23:51;;;;;;;0.30;0.30;;;;;;;22.41;nan;95641.28;5031908;28;20193;-66
2022/07/14 05:26:19;;;;;;;0.20;0.20;;;;;;;22.25;nan;95640.16;5029203;28;21112;-66
2022/07/14 05:28:47;;;;;;;0.83;0.70;;;;;;;22.75;nan;95640.59;5023155;28;20440;-66
2022/07/14 05:31:14;;;;;;;0.77;0.67;;;;;;;22.90;nan;95624.84;5037907;28;20761;-68
2022/07/14 05:33:48;;;;;;;0.30;0.30;;;;;;;22.64;nan;95625.97;5015867;28;20452;-66
2022/07/14 05:36:15;;;;;;;0.30;0.30;;;;;;;23.26;nan;95634.41;5018092;28;20549;-68
2022/07/14 05:38:43;;;;;;;0.50;0.50;;;;;;;22.98;nan;95636.66;5031110;28;20213;-67
2022/07/14 05:41:10;;;;;;;0.67;0.67;;;;;;;22.41;nan;95635.94;5019310;28;20445;-66
2022/07/14 05:43:37;;;;;;;0.53;0.53;;;;;;;22.26;nan;95647.06;5043162;28;20672;-65
2022/07/14 05:46:06;;;;;;;0.20;0.20;;;;;;;23.02;nan;95637.59;5020785;28;20202;-67
2022/07/14 05:48:37;;;;;;;26.07;0.93;;;;;;;22.51;nan;95649.00;5040561;28;20291;-69
2022/07/14 05:51:05;;;;;;;0.20;0.20;;;;;;;22.45;nan;95644.13;5022920;28;20574;-68
2022/07/14 05:53:33;;;;;;;0.97;0.60;;;;;;;22.12;nan;95639.19;5040762;28;20207;-66
2022/07/14 05:56:00;;;;;;;0.80;0.80;;;;;;;22.95;nan;95638.09;5028431;28;20447;-69
2022/07/14 05:58:27;;;;;;;0.40;0.40;;;;;;;23.65;nan;95639.56;5044163;28;20962;-69
2022/07/14 06:00:54;;;;;;;0.40;0.40;;;;;;;22.82;nan;95633.66;5042188;28;20223;-68
2022/07/14 06:03:21;;;;;;;0.50;0.50;;;;;;;23.81;nan;95624.56;5029808;28;20463;-67
2022/07/14 06:05:48;;;;;;;1.53;1.23;;;;;;;24.05;nan;95616.75;5037896;28;20199;-65
2022/07/14 06:08:15;;;;;;;0.50;0.50;;;;;;;23.64;nan;95627.28;5030197;28;20336;-66
2022/07/14 06:10:43;;;;;;;0.50;0.50;;;;;;;23.22;nan;95628.94;5037666;28;20202;-70
2022/07/14 06:13:12;;;;;;;0.20;0.20;;;;;;;24.09;nan;95628.38;5043862;28;20201;-69
2022/07/14 06:15:41;;;;;;;1.07;0.97;;;;;;;23.99;nan;95620.69;5041934;28;20204;-64
2022/07/14 06:18:10;;;;;;;0.33;0.33;;;;;;;24.56;nan;95619.13;5040863;28;20364;-66
2022/07/14 06:20:41;;;;;;;0.43;0.43;;;;;;;24.19;nan;95611.19;5020476;28;20217;-69
2022/07/14 06:23:09;;;;;;;0.70;0.70;;;;;;;24.11;nan;95610.09;5046994;28;20204;-69
2022/07/14 06:25:37;;;;;;;0.10;0.10;;;;;;;23.97;nan;95614.88;5030047;28;20544;-67
2022/07/14 06:28:06;;;;;;;0.27;0.27;;;;;;;24.50;nan;95601.69;5041215;28;20593;-69
2022/07/14 06:30:34;;;;;;;0.40;0.40;;;;;;;24.33;nan;95609.84;5040883;28;20193;-69
2022/07/14 06:33:01;;;;;;;0.33;0.33;;;;;;;24.69;nan;95599.34;5044683;28;20293;-65
2022/07/14 06:35:28;;;;;;;0.53;0.50;;;;;;;24.91;nan;95600.91;5036108;28;20660;-68
2022/07/14 06:38:15;;;;;;;0.53;0.40;;;;;;;24.86;nan;95601.91;5031353;28;20212;-65
2022/07/14 06:40:43;;;;;;;0.80;0.80;;;;;;;25.05;nan;95591.47;5017852;28;20221;-66
2022/07/14 06:43:10;;;;;;;0.10;0.10;;;;;;;25.43;nan;95602.03;5043413;28;20204;-66
2022/07/14 06:45:52;;;;;;;0.60;0.60;;;;;;;25.24;nan;95599.03;5040542;28;20243;-64
2022/07/14 06:48:19;;;;;;;0.40;0.40;;;;;;;25.40;nan;95599.25;5030173;28;20232;-68
2022/07/14 06:50:46;;;;;;;12.53;0.77;;;;;;;25.62;nan;95604.22;5023668;28;20197;-65
2022/07/14 06:53:15;;;;;;;0.30;0.30;;;;;;;25.31;nan;95601.19;5023879;28;20197;-71
2022/07/14 06:55:41;;;;;;;0.27;0.27;;;;;;;25.32;nan;95589.34;5033030;28;20690;-64
2022/07/14 06:58:08;;;;;;;0.90;0.90;;;;;;;25.41;nan;95588.16;5039289;28;20212;-66
2022/07/14 07:00:35;;;;;;;1.50;0.83;;;;;;;25.82;nan;95592.59;5037090;28;20221;-64
2022/07/14 07:03:09;;;;;;;2.70;2.33;;;;;;;25.75;nan;95582.41;5036335;28;20220;-66
2022/07/14 07:08:25;;;;;;;0.73;0.63;;;;;;;25.68;nan;95573.34;5029097;28;20205;-65
2022/07/14 07:10:55;;;;;;;0.47;0.47;;;;;;;25.96;nan;95577.72;5024953;28;20201;-69
2022/07/14 07:13:23;;;;;;;1.17;1.03;;;;;;;26.15;nan;95579.84;5042859;28;20193;-66
2022/07/14 07:15:56;;;;;;;0.87;0.87;;;;;;;26.05;nan;95569.59;5043754;28;20207;-65
2022/07/14 07:18:23;;;;;;;0.97;0.97;;;;;;;25.98;nan;95569.34;5049504;28;20200;-68
2022/07/14 07:20:50;;;;;;;3.60;1.80;;;;;;;26.51;nan;95565.59;5037211;28;20244;-65
2022/07/14 07:23:18;;;;;;;0.83;0.83;;;;;;;26.80;nan;95563.44;5016095;28;20299;-65
2022/07/14 07:25:45;;;;;;;0.40;0.40;;;;;;;27.28;nan;95558.94;5018877;28;20220;-67
2022/07/14 07:28:12;;;;;;;7.53;1.60;;;;;;;26.80;nan;95563.44;5026791;28;20691;-70
2022/07/14 07:30:39;;;;;;;1.47;1.37;;;;;;;27.28;nan;95562.41;5020997;28;20275;-69
2022/07/14 07:33:06;;;;;;;3.13;0.97;;;;;;;27.46;nan;95568.28;5040413;28;20242;-66
2022/07/14 07:35:33;;;;;;;1.13;1.03;;;;;;;27.82;nan;95570.75;5049761;28;20204;-68
2022/07/14 07:38:05;;;;;;;0.30;0.30;;;;;;;27.84;nan;95555.00;5020435;28;20289;-68
2022/07/14 07:40:32;;;;;;;0.47;0.47;;;;;;;27.88;nan;95566.66;5022836;28;20216;-67
2022/07/14 07:42:59;;;;;;;0.30;0.30;;;;;;;27.80;nan;95556.84;5024038;28;20205;-71
2022/07/14 07:45:26;;;;;;;2.27;1.33;;;;;;;27.15;nan;95563.63;5014899;28;20201;-67
2022/07/14 07:47:53;;;;;;;0.30;0.30;;;;;;;27.59;nan;95567.09;5040600;28;20330;-67
2022/07/14 07:50:20;;;;;;;1.13;0.87;;;;;;;26.74;nan;95554.03;5035435;28;20265;-67
2022/07/14 07:52:46;;;;;;;0.37;0.37;;;;;;;27.17;nan;95552.50;5030823;28;20586;-66
2022/07/14 07:55:15;;;;;;;0.40;0.40;;;;;;;27.56;nan;95552.41;5031758;28;20200;-68
2022/07/14 07:57:52;;;;;;;0.30;0.30;;;;;;;27.93;nan;95553.75;5021868;28;20201;-66
2022/07/14 08:00:19;;;;;;;0.40;0.40;;;;;;;27.89;nan;95550.16;5033531;28;20216;-68
2022/07/14 08:02:48;;;;;;;0.30;0.30;;;;;;;27.82;nan;95522.25;5038620;28;20683;-66
2022/07/14 08:05:17;;;;;;;0.50;0.50;;;;;;;28.22;nan;95517.44;5043586;28;20193;-66
2022/07/14 08:08:07;;;;;;;0.40;0.30;;;;;;;27.70;nan;95541.97;5024044;28;20285;-66
2022/07/14 08:10:34;;;;;;;0.40;0.40;;;;;;;27.50;nan;95532.25;5021927;28;20604;-67
2022/07/14 08:13:01;;;;;;;0.60;0.60;;;;;;;28.55;nan;95535.88;5015104;28;20973;-70
2022/07/14 08:15:29;;;;;;;0.30;0.30;;;;;;;28.52;nan;95528.47;5029460;28;20201;-69
2022/07/14 08:17:55;;;;;;;0.40;0.40;;;;;;;29.28;nan;95522.31;5043068;28;20192;-67
2022/07/14 08:20:22;;;;;;;0.20;0.20;;;;;;;29.24;nan;95524.16;5029142;28;20227;-66
2022/07/14 08:22:51;;;;;;;0.30;0.30;;;;;;;29.30;nan;95525.44;5043387;28;20238;-64
2022/07/14 08:25:19;;;;;;;1.43;1.03;;;;;;;29.09;nan;95528.47;5022492;28;20194;-69
2022/07/14 08:27:45;;;;;;;0.20;0.20;;;;;;;29.23;nan;95520.69;5009558;28;20314;-67
2022/07/14 08:30:13;;;;;;;0.37;0.37;;;;;;;28.56;nan;95527.44;5034598;28;20565;-66
2022/07/14 08:32:45;;;;;;;0.60;0.60;;;;;;;27.61;nan;95527.91;5049463;28;20206;-65
2022/07/14 08:35:14;;;;;;;0.50;0.50;;;;;;;27.80;nan;95521.81;5040058;28;20209;-69
2022/07/14 08:37:42;;;;;;;1.03;0.77;;;;;;;28.47;nan;95510.66;5020443;28;20223;-69
2022/07/14 08:40:13;;;;;;;0.30;0.30;;;;;;;29.28;nan;95508.81;5032698;28;20243;-70
2022/07/14 08:42:45;;;;;;;0.40;0.40;;;;;;;29.28;nan;95500.69;5034457;28;20202;-67
2022/07/14 08:45:14;;;;;;;0.20;0.20;;;;;;;29.46;nan;95497.16;5037148;28;20198;-66
2022/07/14 08:47:42;;;;;;;0.40;0.40;;;;;;;29.29;nan;95500.34;5028386;28;20571;-64
2022/07/14 08:50:12;;;;;;;0.73;0.73;;;;;;;29.86;nan;95493.97;5032943;28;20598;-69
2022/07/14 08:52:41;;;;;;;0.40;0.40;;;;;;;29.98;nan;95504.59;5031522;28;20589;-66
2022/07/14 08:55:10;;;;;;;0.50;0.50;;;;;;;29.67;nan;95499.44;5028702;28;20653;-67
2022/07/14 08:57:39;;;;;;;0.40;0.40;;;;;;;30.00;nan;95498.81;5013144;28;20194;-66
2022/07/14 09:00:11;;;;;;;0.10;0.10;;;;;;;29.84;nan;95501.66;5042827;28;20246;-67
2022/07/14 09:02:41;;;;;;;0.30;0.30;;;;;;;29.70;nan;95496.84;5042221;28;20219;-66
2022/07/14 09:05:27;;;;;;;1.80;0.87;;;;;;;29.80;nan;95500.81;5024498;28;20188;-66
2022/07/14 09:07:57;;;;;;;0.10;0.10;;;;;;;29.69;nan;95487.16;5043929;28;20190;-70
2022/07/14 09:10:26;;;;;;;0.30;0.30;;;;;;;29.28;nan;95495.31;5033455;28;20228;-66
2022/07/14 09:13:20;;;;;;;0.30;0.30;;;;;;;29.61;nan;95493.56;5037772;28;20279;-68
2022/07/14 09:15:48;;;;;;;0.97;0.70;;;;;;;30.25;nan;95481.81;5052491;28;20193;-70
2022/07/14 09:18:24;;;;;;;0.20;0.20;;;;;;;29.77;nan;95490.75;5024315;28;20205;-66
2022/07/14 09:20:54;;;;;;;0.10;0.10;;;;;;;30.21;nan;95488.28;5026792;28;20267;-67
2022/07/14 09:23:32;;;;;;;0.57;0.40;;;;;;;30.47;nan;95480.19;5044982;28;20201;-69
2022/07/14 09:26:16;;;;;;;1.13;0.77;;;;;;;30.66;nan;95472.69;5017771;28;20646;-67
2022/07/14 09:28:46;;;;;;;0.33;0.33;;;;;;;30.05;nan;95477.66;5026774;28;20192;-65
2022/07/14 09:31:28;;;;;;;0.67;0.53;;;;;;;30.55;nan;95465.56;5037941;28;20588;-69
2022/07/14 09:33:58;;;;;;;0.40;0.40;;;;;;;30.25;nan;95472.91;5028650;28;20192;-68
2022/07/14 09:36:33;;;;;;;0.20;0.20;;;;;;;30.05;nan;95469.56;5037569;28;20205;-66
2022/07/14 09:39:02;;;;;;;0.40;0.40;;;;;;;30.31;nan;95469.53;5043472;28;20567;-69
2022/07/14 09:41:48;;;;;;;1.50;0.70;;;;;;;30.55;nan;95460.97;5045104;28;20220;-66
2022/07/14 09:44:17;;;;;;;0.20;0.20;;;;;;;29.81;nan;95469.97;5020918;28;20205;-66
2022/07/14 09:46:48;;;;;;;0.60;0.60;;;;;;;30.64;nan;95463.38;5045700;28;20576;-69
2022/07/14 09:49:17;;;;;;;0.60;0.60;;;;;;;30.24;nan;95455.91;5023215;28;20244;-66
2022/07/14 09:51:54;;;;;;;0.30;0.30;;;;;;;30.69;nan;95461.13;5041268;28;20200;-67
2022/07/14 09:54:50;;;;;;;0.23;0.23;;;;;;;30.97;nan;95459.91;5051523;28;20199;-66
2022/07/14 09:57:18;;;;;;;0.30;0.30;;;;;;;30.66;nan;95455.66;5018135;28;20287;-67
2022/07/14 09:59:57;;;;;;;0.20;0.20;;;;;;;31.15;nan;95455.47;5045356;28;20896;-68
2022/07/14 10:02:29;;;;;;;0.20;0.20;;;;;;;31.59;nan;95453.53;5011745;28;20775;-67
2022/07/14 10:05:07;;;;;;;0.47;0.47;;;;;;;31.14;nan;95451.19;5013297;28;20237;-71
2022/07/14 10:07:41;;;;;;;0.37;0.37;;;;;;;31.40;nan;95451.06;5046809;28;20765;-70
2022/07/14 10:10:13;;;;;;;0.20;0.20;;;;;;;31.51;nan;95443.81;5019549;28;20579;-70
2022/07/14 10:12:41;;;;;;;0.30;0.30;;;;;;;30.98;nan;95453.34;5045938;28;20292;-68
2022/07/14 10:15:11;;;;;;;0.77;0.77;;;;;;;31.22;nan;95445.44;5036195;28;20193;-65
2022/07/14 10:17:40;;;;;;;0.40;0.40;;;;;;;31.18;nan;95443.88;5024046;28;20201;-70
2022/07/14 10:20:10;;;;;;;0.20;0.20;;;;;;;31.47;nan;95437.56;5044414;28;20209;-69
2022/07/14 10:22:38;;;;;;;0.30;0.30;;;;;;;31.92;nan;95434.44;5030881;28;20205;-68
2022/07/14 10:25:07;;;;;;;0.40;0.40;;;;;;;31.60;nan;95428.00;5036082;28;20664;-68
2022/07/14 10:27:46;;;;;;;0.73;0.53;;;;;;;32.06;nan;95429.13;5025853;28;20300;-72
2022/07/14 10:30:15;;;;;;;0.50;0.50;;;;;;;31.96;nan;95408.13;5036570;28;20663;-68
2022/07/14 10:33:02;;;;;;;0.20;0.20;;;;;;;32.49;nan;95414.59;5026392;28;20737;-70
2022/07/14 10:35:47;;;;;;;0.23;0.23;;;;;;;32.53;nan;95418.13;5025402;28;20201;-70
2022/07/14 10:38:45;;;;;;;0.20;0.20;;;;;;;31.96;nan;95420.91;5022555;28;20295;-67
2022/07/14 10:41:26;;;;;;;0.93;0.60;;;;;;;32.08;nan;95421.34;5026309;28;20227;-63
2022/07/14 10:44:00;;;;;;;0.30;0.30;;;;;;;32.02;nan;95412.03;5017407;28;20334;-67
2022/07/14 10:46:34;;;;;;;0.20;0.20;;;;;;;31.24;nan;95412.59;5030552;28;20193;-70
2022/07/14 10:49:04;;;;;;;0.13;0.13;;;;;;;32.11;nan;95404.34;5030874;28;20209;-67
2022/07/14 10:51:41;;;;;;;0.30;0.30;;;;;;;32.14;nan;95409.00;5043806;28;20201;-67
2022/07/14 10:54:11;;;;;;;0.30;0.30;;;;;;;31.97;nan;95404.25;5043561;28;20726;-70
2022/07/14 10:57:10;;;;;;;0.47;0.43;;;;;;;32.41;nan;95395.94;5020993;28;20301;-72
2022/07/14 10:59:37;;;;;;;0.20;0.20;;;;;;;32.20;nan;95399.34;5037744;28;20585;-66
2022/07/14 11:02:13;;;;;;;0.20;0.20;;;;;;;32.69;nan;95385.19;5021096;28;20731;-71
2022/07/14 11:05:04;;;;;;;0.20;0.20;;;;;;;32.71;nan;95383.66;5050095;28;20222;-66
2022/07/14 11:08:03;;;;;;;0.67;0.67;;;;;;;32.91;nan;95380.56;5048136;28;20188;-68
2022/07/14 11:10:30;;;;;;;0.60;0.60;;;;;;;32.76;nan;95391.41;5010603;28;20220;-65
2022/07/14 11:12:59;;;;;;;0.30;0.30;;;;;;;33.05;nan;95377.94;5031194;28;20246;-70
2022/07/14 11:15:44;;;;;;;1.53;0.93;;;;;;;33.08;nan;95375.22;5039873;28;20737;-68
2022/07/14 11:18:29;;;;;;;0.37;0.30;;;;;;;33.45;nan;95383.00;5044231;28;20197;-66
2022/07/14 11:21:17;;;;;;;0.70;0.47;;;;;;;33.91;nan;95375.53;5043810;28;20302;-70
2022/07/14 11:23:50;;;;;;;0.40;0.40;;;;;;;33.78;nan;95382.53;5027176;28;20204;-70
2022/07/14 11:26:32;;;;;;;0.30;0.30;;;;;;;33.88;nan;95373.59;5049601;28;20267;-70
2022/07/14 11:29:02;;;;;;;0.20;0.20;;;;;;;34.07;nan;95370.44;5040389;28;20209;-67
2022/07/14 11:31:54;;;;;;;0.50;0.50;;;;;;;34.10;nan;95369.69;5043796;28;20707;-67
2022/07/14 11:37:14;;;;;;;0.40;0.40;;;;;;;33.66;nan;95370.16;5037011;28;20216;-74
2022/07/14 11:40:01;;;;;;;0.50;0.50;;;;;;;33.72;nan;95365.09;5035277;28;20197;-68
2022/07/14 11:42:28;;;;;;;0.77;0.77;;;;;;;33.74;nan;95368.22;5032390;28;20582;-70
2022/07/14 11:44:55;;;;;;;0.30;0.30;;;;;;;34.28;nan;95356.78;5039480;28;20228;-69
2022/07/14 11:47:24;;;;;;;0.37;0.37;;;;;;;33.75;nan;95358.88;5042347;28;20189;-67
2022/07/14 11:50:00;;;;;;;0.40;0.40;;;;;;;33.96;nan;95361.53;5029563;28;20227;-69
2022/07/14 11:52:38;;;;;;;0.23;0.23;;;;;;;33.81;nan;95357.31;5029499;28;20280;-69
2022/07/14 11:55:08;;;;;;;0.20;0.20;;;;;;;34.22;nan;95350.19;5015203;28;20255;-70
2022/07/14 11:57:35;;;;;;;0.40;0.40;;;;;;;33.95;nan;95349.13;5029776;28;20587;-68
2022/07/14 12:00:09;;;;;;;0.50;0.50;;;;;;;33.94;nan;95344.84;5021269;28;20695;-67
2022/07/14 12:02:54;;;;;;;0.40;0.40;;;;;;;34.14;nan;95342.47;5047935;28;20682;-64
2022/07/14 12:05:23;;;;;;;0.20;0.20;;;;;;;34.40;nan;95340.00;5049113;28;20192;-69
2022/07/14 12:07:51;;;;;;;0.30;0.30;;;;;;;34.23;nan;95346.31;5035507;28;20192;-69
2022/07/14 12:10:36;;;;;;;0.30;0.30;;;;;;;34.03;nan;95342.50;5029192;28;20224;-69
2022/07/14 12:13:03;;;;;;;0.30;0.30;;;;;;;34.24;nan;95320.66;5044530;28;20234;-65
2022/07/14 12:15:32;;;;;;;0.33;0.33;;;;;;;34.48;nan;95322.50;5040352;28;20192;-68
2022/07/14 12:18:01;;;;;;;0.20;0.20;;;;;;;34.92;nan;95329.19;5021273;28;20203;-64